sensor_id;sensor_type;location;lat;lon;timestamp;temperature;humidity
18823;DHT22;9540;51.550;7.980;2023-03-01T00:00:08;-5.00;99.90
18823;DHT22;9540;51.550;7.980;2023-03-01T00:02:35;-4.90;99.90
18823;DHT22;9540;51.550;7.980;2023-03-01T00:05:04;-4.80;99.90
18823;DHT22;9540;51.550;7.980;2023-03-01T00:07:33;-4.80;99.90
18823;DHT22;9540;51.550;7.980;2023-03-01T00:10:02;-4.90;99.90
18823;DHT22;9540;51.550;7.980;2023-03-01T00:12:29;-4.90;99.90
18823;DHT22;9540;51.550;7.980;2023-03-01T00:14:59;-5.00;99.90
18823;DHT22;9540;51.550;7.980;2023-03-01T00:17:27;-5.00;99.90
18823;DHT22;9540;51.550;7.980;2023-03-01T00:19:55;-5.10;99.90
18823;DHT22;9540;51.550;7.980;2023-03-01T00:22:22;-5.10;99.90
18823;DHT22;9540;51.550;7.980;2023-03-01T00:24:49;-5.20;99.90
18823;DHT22;9540;51.550;7.980;2023-03-01T00:27:18;-5.20;99.90
18823;DHT22;9540;51.550;7.980;2023-03-01T00:29:45;-5.20;99.90
18823;DHT22;9540;51.550;7.980;2023-03-01T00:32:12;-5.30;99.90
18823;DHT22;9540;51.550;7.980;2023-03-01T00:34:39;-5.30;99.90
18823;DHT22;9540;51.550;7.980;2023-03-01T00:37:16;-5.40;99.90
18823;DHT22;9540;51.550;7.980;2023-03-01T00:39:43;-5.50;99.90
18823;DHT22;9540;51.550;7.980;2023-03-01T00:42:11;-5.50;99.90
18823;DHT22;9540;51.550;7.980;2023-03-01T00:44:39;-5.50;99.90
18823;DHT22;9540;51.550;7.980;2023-03-01T00:47:06;-5.60;99.90
18823;DHT22;9540;51.550;7.980;2023-03-01T00:49:34;-5.70;99.90
18823;DHT22;9540;51.550;7.980;2023-03-01T00:52:01;-5.70;99.90
18823;DHT22;9540;51.550;7.980;2023-03-01T00:54:28;-5.70;99.90
18823;DHT22;9540;51.550;7.980;2023-03-01T00:56:55;-5.70;99.90
18823;DHT22;9540;51.550;7.980;2023-03-01T00:59:23;-5.80;99.90
18823;DHT22;9540;51.550;7.980;2023-03-01T01:02:03;-5.80;99.90
18823;DHT22;9540;51.550;7.980;2023-03-01T01:04:30;-5.80;99.90
18823;DHT22;9540;51.550;7.980;2023-03-01T01:06:57;-5.90;99.90
18823;DHT22;9540;51.550;7.980;2023-03-01T01:09:24;-5.90;99.90
18823;DHT22;9540;51.550;7.980;2023-03-01T01:11:51;-5.80;99.90
18823;DHT22;9540;51.550;7.980;2023-03-01T01:14:18;-5.80;99.90
18823;DHT22;9540;51.550;7.980;2023-03-01T01:16:45;-5.80;99.90
18823;DHT22;9540;51.550;7.980;2023-03-01T01:19:14;-5.80;99.90
18823;DHT22;9540;51.550;7.980;2023-03-01T01:21:44;-5.70;99.90
18823;DHT22;9540;51.550;7.980;2023-03-01T01:24:12;-5.80;99.90
18823;DHT22;9540;51.550;7.980;2023-03-01T01:26:40;-5.80;99.90
18823;DHT22;9540;51.550;7.980;2023-03-01T01:29:07;-5.90;99.90
18823;DHT22;9540;51.550;7.980;2023-03-01T01:31:36;-6.00;99.90
18823;DHT22;9540;51.550;7.980;2023-03-01T01:34:05;-6.00;99.90
18823;DHT22;9540;51.550;7.980;2023-03-01T01:36:35;-6.00;99.90
18823;DHT22;9540;51.550;7.980;2023-03-01T01:39:02;-6.00;99.90
18823;DHT22;9540;51.550;7.980;2023-03-01T01:41:30;-6.10;99.90
18823;DHT22;9540;51.550;7.980;2023-03-01T01:44:16;-6.10;99.90
18823;DHT22;9540;51.550;7.980;2023-03-01T01:46:46;-6.00;99.90
18823;DHT22;9540;51.550;7.980;2023-03-01T01:49:22;-6.00;99.90
18823;DHT22;9540;51.550;7.980;2023-03-01T01:51:56;-5.90;99.90
18823;DHT22;9540;51.550;7.980;2023-03-01T01:54:26;-6.00;99.90
18823;DHT22;9540;51.550;7.980;2023-03-01T01:56:57;-6.00;99.90
18823;DHT22;9540;51.550;7.980;2023-03-01T01:59:28;-6.00;99.90
18823;DHT22;9540;51.550;7.980;2023-03-01T02:01:58;-6.00;99.90
18823;DHT22;9540;51.550;7.980;2023-03-01T02:04:26;-6.10;99.90
18823;DHT22;9540;51.550;7.980;2023-03-01T02:07:01;-6.10;99.90
18823;DHT22;9540;51.550;7.980;2023-03-01T02:09:29;-6.10;99.90
18823;DHT22;9540;51.550;7.980;2023-03-01T02:11:57;-6.20;99.90
18823;DHT22;9540;51.550;7.980;2023-03-01T02:14:25;-6.20;99.90
18823;DHT22;9540;51.550;7.980;2023-03-01T02:16:52;-6.10;99.90
18823;DHT22;9540;51.550;7.980;2023-03-01T02:19:29;-6.00;99.90
18823;DHT22;9540;51.550;7.980;2023-03-01T02:22:03;-5.90;99.90
18823;DHT22;9540;51.550;7.980;2023-03-01T02:24:40;-6.00;99.90
18823;DHT22;9540;51.550;7.980;2023-03-01T02:27:12;-6.00;99.90
18823;DHT22;9540;51.550;7.980;2023-03-01T02:29:41;-6.10;99.90
18823;DHT22;9540;51.550;7.980;2023-03-01T02:32:11;-6.10;99.90
18823;DHT22;9540;51.550;7.980;2023-03-01T02:34:38;-6.10;99.90
18823;DHT22;9540;51.550;7.980;2023-03-01T02:37:09;-6.20;99.90
18823;DHT22;9540;51.550;7.980;2023-03-01T02:39:42;-6.30;99.90
18823;DHT22;9540;51.550;7.980;2023-03-01T02:42:12;-6.30;99.90
18823;DHT22;9540;51.550;7.980;2023-03-01T02:44:41;-6.40;99.90
18823;DHT22;9540;51.550;7.980;2023-03-01T02:47:08;-6.40;99.90
18823;DHT22;9540;51.550;7.980;2023-03-01T02:49:36;-6.40;99.90
18823;DHT22;9540;51.550;7.980;2023-03-01T02:52:33;-6.40;99.90
18823;DHT22;9540;51.550;7.980;2023-03-01T02:55:07;-6.40;99.90
18823;DHT22;9540;51.550;7.980;2023-03-01T02:57:38;-6.40;99.90
18823;DHT22;9540;51.550;7.980;2023-03-01T03:00:11;-6.30;99.90
18823;DHT22;9540;51.550;7.980;2023-03-01T03:02:45;-6.30;99.90
18823;DHT22;9540;51.550;7.980;2023-03-01T03:05:14;-6.30;99.90
18823;DHT22;9540;51.550;7.980;2023-03-01T03:07:43;-6.30;99.90
18823;DHT22;9540;51.550;7.980;2023-03-01T03:10:13;-6.40;99.90
18823;DHT22;9540;51.550;7.980;2023-03-01T03:12:40;-6.40;99.90
18823;DHT22;9540;51.550;7.980;2023-03-01T03:15:10;-6.50;99.90
18823;DHT22;9540;51.550;7.980;2023-03-01T03:17:40;-6.50;99.90
18823;DHT22;9540;51.550;7.980;2023-03-01T03:20:09;-6.50;99.90
18823;DHT22;9540;51.550;7.980;2023-03-01T03:22:38;-6.60;99.90
18823;DHT22;9540;51.550;7.980;2023-03-01T03:25:07;-6.50;99.90
18823;DHT22;9540;51.550;7.980;2023-03-01T03:27:36;-6.60;99.90
18823;DHT22;9540;51.550;7.980;2023-03-01T03:30:05;-6.60;99.90
18823;DHT22;9540;51.550;7.980;2023-03-01T03:32:36;-6.60;99.90
18823;DHT22;9540;51.550;7.980;2023-03-01T03:35:03;-6.60;99.90
18823;DHT22;9540;51.550;7.980;2023-03-01T03:37:35;-6.50;99.90
18823;DHT22;9540;51.550;7.980;2023-03-01T03:40:20;-6.50;99.90
18823;DHT22;9540;51.550;7.980;2023-03-01T03:42:47;-6.50;99.90
18823;DHT22;9540;51.550;7.980;2023-03-01T03:45:15;-6.50;99.90
18823;DHT22;9540;51.550;7.980;2023-03-01T03:47:44;-6.60;99.90
18823;DHT22;9540;51.550;7.980;2023-03-01T03:50:12;-6.60;99.90
18823;DHT22;9540;51.550;7.980;2023-03-01T03:52:40;-6.70;99.90
18823;DHT22;9540;51.550;7.980;2023-03-01T03:55:09;-6.60;99.90
18823;DHT22;9540;51.550;7.980;2023-03-01T03:57:38;-6.70;99.90
18823;DHT22;9540;51.550;7.980;2023-03-01T04:00:08;-6.60;99.90
18823;DHT22;9540;51.550;7.980;2023-03-01T04:02:38;-6.70;99.90
18823;DHT22;9540;51.550;7.980;2023-03-01T04:05:09;-6.70;99.90
18823;DHT22;9540;51.550;7.980;2023-03-01T04:07:37;-6.80;99.90
18823;DHT22;9540;51.550;7.980;2023-03-01T04:10:07;-6.80;99.90
18823;DHT22;9540;51.550;7.980;2023-03-01T04:12:35;-6.80;99.90
18823;DHT22;9540;51.550;7.980;2023-03-01T04:15:04;-6.80;99.90
18823;DHT22;9540;51.550;7.980;2023-03-01T04:17:38;-6.70;99.90
18823;DHT22;9540;51.550;7.980;2023-03-01T04:20:10;-6.70;99.90
18823;DHT22;9540;51.550;7.980;2023-03-01T04:22:37;-6.80;99.90
18823;DHT22;9540;51.550;7.980;2023-03-01T04:25:05;-6.70;99.90
18823;DHT22;9540;51.550;7.980;2023-03-01T04:27:33;-6.80;99.90
18823;DHT22;9540;51.550;7.980;2023-03-01T04:30:00;-6.80;99.90
18823;DHT22;9540;51.550;7.980;2023-03-01T04:32:27;-6.80;99.90
18823;DHT22;9540;51.550;7.980;2023-03-01T04:34:55;-6.80;99.90
18823;DHT22;9540;51.550;7.980;2023-03-01T04:37:23;-6.80;99.90
18823;DHT22;9540;51.550;7.980;2023-03-01T04:39:50;-6.80;99.90
18823;DHT22;9540;51.550;7.980;2023-03-01T04:42:18;-6.80;99.90
18823;DHT22;9540;51.550;7.980;2023-03-01T04:44:46;-6.80;99.90
18823;DHT22;9540;51.550;7.980;2023-03-01T04:47:13;-6.80;99.90
18823;DHT22;9540;51.550;7.980;2023-03-01T04:49:40;-6.80;99.90
18823;DHT22;9540;51.550;7.980;2023-03-01T04:52:07;-6.80;99.90
18823;DHT22;9540;51.550;7.980;2023-03-01T04:54:36;-6.80;99.90
18823;DHT22;9540;51.550;7.980;2023-03-01T04:57:03;-6.80;99.90
18823;DHT22;9540;51.550;7.980;2023-03-01T04:59:31;-6.90;99.90
18823;DHT22;9540;51.550;7.980;2023-03-01T05:01:58;-6.80;99.90
18823;DHT22;9540;51.550;7.980;2023-03-01T05:04:26;-6.80;99.90
18823;DHT22;9540;51.550;7.980;2023-03-01T05:06:53;-6.80;99.90
18823;DHT22;9540;51.550;7.980;2023-03-01T05:09:20;-6.90;99.90
18823;DHT22;9540;51.550;7.980;2023-03-01T05:11:49;-6.80;99.90
18823;DHT22;9540;51.550;7.980;2023-03-01T05:14:17;-6.90;99.90
18823;DHT22;9540;51.550;7.980;2023-03-01T05:16:44;-6.90;99.90
18823;DHT22;9540;51.550;7.980;2023-03-01T05:19:11;-6.90;99.90
18823;DHT22;9540;51.550;7.980;2023-03-01T05:21:41;-6.80;99.90
18823;DHT22;9540;51.550;7.980;2023-03-01T05:24:22;-6.80;99.90
18823;DHT22;9540;51.550;7.980;2023-03-01T05:26:51;-6.90;99.90
18823;DHT22;9540;51.550;7.980;2023-03-01T05:29:18;-6.90;99.90
18823;DHT22;9540;51.550;7.980;2023-03-01T05:31:51;-6.90;99.90
18823;DHT22;9540;51.550;7.980;2023-03-01T05:34:19;-6.90;99.90
18823;DHT22;9540;51.550;7.980;2023-03-01T05:36:48;-6.90;99.90
18823;DHT22;9540;51.550;7.980;2023-03-01T05:39:19;-6.90;99.90
18823;DHT22;9540;51.550;7.980;2023-03-01T05:41:48;-7.00;99.90
18823;DHT22;9540;51.550;7.980;2023-03-01T05:44:16;-7.00;99.90
18823;DHT22;9540;51.550;7.980;2023-03-01T05:46:45;-7.00;99.90
18823;DHT22;9540;51.550;7.980;2023-03-01T05:49:13;-7.00;99.90
18823;DHT22;9540;51.550;7.980;2023-03-01T05:51:40;-7.10;99.90
18823;DHT22;9540;51.550;7.980;2023-03-01T05:54:08;-7.10;99.90
18823;DHT22;9540;51.550;7.980;2023-03-01T05:56:36;-7.20;99.90
18823;DHT22;9540;51.550;7.980;2023-03-01T05:59:04;-7.10;99.90
18823;DHT22;9540;51.550;7.980;2023-03-01T06:01:35;-7.10;99.90
18823;DHT22;9540;51.550;7.980;2023-03-01T06:04:03;-7.10;99.90
18823;DHT22;9540;51.550;7.980;2023-03-01T06:06:34;-7.10;99.90
18823;DHT22;9540;51.550;7.980;2023-03-01T06:09:03;-7.10;99.90
18823;DHT22;9540;51.550;7.980;2023-03-01T06:11:30;-7.10;99.90
18823;DHT22;9540;51.550;7.980;2023-03-01T06:13:57;-7.00;99.90
18823;DHT22;9540;51.550;7.980;2023-03-01T06:16:25;-7.00;99.90
18823;DHT22;9540;51.550;7.980;2023-03-01T06:18:54;-7.00;99.90
18823;DHT22;9540;51.550;7.980;2023-03-01T06:21:21;-6.90;99.90
18823;DHT22;9540;51.550;7.980;2023-03-01T06:23:49;-6.90;99.90
18823;DHT22;9540;51.550;7.980;2023-03-01T06:26:17;-6.80;99.90
18823;DHT22;9540;51.550;7.980;2023-03-01T06:28:44;-6.70;99.90
18823;DHT22;9540;51.550;7.980;2023-03-01T06:31:12;-6.50;99.90
18823;DHT22;9540;51.550;7.980;2023-03-01T06:33:39;-6.30;99.90
18823;DHT22;9540;51.550;7.980;2023-03-01T06:36:09;-6.10;99.90
18823;DHT22;9540;51.550;7.980;2023-03-01T06:38:36;-5.90;99.90
18823;DHT22;9540;51.550;7.980;2023-03-01T06:41:03;-5.60;99.90
18823;DHT22;9540;51.550;7.980;2023-03-01T06:43:31;-5.20;99.90
18823;DHT22;9540;51.550;7.980;2023-03-01T06:45:58;-5.00;99.90
18823;DHT22;9540;51.550;7.980;2023-03-01T06:48:25;-4.60;99.90
18823;DHT22;9540;51.550;7.980;2023-03-01T06:50:52;-4.20;99.90
18823;DHT22;9540;51.550;7.980;2023-03-01T06:53:20;-4.10;99.90
18823;DHT22;9540;51.550;7.980;2023-03-01T06:55:53;-4.10;99.90
18823;DHT22;9540;51.550;7.980;2023-03-01T06:58:20;-3.80;99.90
18823;DHT22;9540;51.550;7.980;2023-03-01T07:00:47;-3.10;99.90
18823;DHT22;9540;51.550;7.980;2023-03-01T07:03:14;-2.20;99.90
18823;DHT22;9540;51.550;7.980;2023-03-01T07:05:41;-1.70;99.90
18823;DHT22;9540;51.550;7.980;2023-03-01T07:08:10;-1.30;99.90
18823;DHT22;9540;51.550;7.980;2023-03-01T07:10:38;-0.80;99.90
18823;DHT22;9540;51.550;7.980;2023-03-01T07:13:05;-0.50;99.90
18823;DHT22;9540;51.550;7.980;2023-03-01T07:15:34;-0.60;99.90
18823;DHT22;9540;51.550;7.980;2023-03-01T07:18:01;-0.50;99.90
18823;DHT22;9540;51.550;7.980;2023-03-01T07:20:28;-0.40;99.90
18823;DHT22;9540;51.550;7.980;2023-03-01T07:22:55;-0.70;99.90
18823;DHT22;9540;51.550;7.980;2023-03-01T07:25:26;-1.20;99.90
18823;DHT22;9540;51.550;7.980;2023-03-01T07:27:55;-1.50;99.90
18823;DHT22;9540;51.550;7.980;2023-03-01T07:30:23;-1.80;99.90
18823;DHT22;9540;51.550;7.980;2023-03-01T07:32:53;-2.10;99.90
18823;DHT22;9540;51.550;7.980;2023-03-01T07:35:21;-2.10;99.90
18823;DHT22;9540;51.550;7.980;2023-03-01T07:37:48;-2.10;99.90
18823;DHT22;9540;51.550;7.980;2023-03-01T07:40:15;-2.10;99.90
18823;DHT22;9540;51.550;7.980;2023-03-01T07:42:42;-2.00;99.90
18823;DHT22;9540;51.550;7.980;2023-03-01T07:45:11;-1.80;99.90
18823;DHT22;9540;51.550;7.980;2023-03-01T07:47:39;-1.20;99.90
18823;DHT22;9540;51.550;7.980;2023-03-01T07:50:07;-0.30;99.90
18823;DHT22;9540;51.550;7.980;2023-03-01T07:52:34;0.00;99.90
18823;DHT22;9540;51.550;7.980;2023-03-01T07:55:02;0.00;99.90
18823;DHT22;9540;51.550;7.980;2023-03-01T07:57:29;0.00;99.90
18823;DHT22;9540;51.550;7.980;2023-03-01T07:59:57;-0.10;99.90
18823;DHT22;9540;51.550;7.980;2023-03-01T08:02:26;0.00;99.90
18823;DHT22;9540;51.550;7.980;2023-03-01T08:04:53;0.50;99.90
18823;DHT22;9540;51.550;7.980;2023-03-01T08:07:20;1.60;99.90
18823;DHT22;9540;51.550;7.980;2023-03-01T08:09:47;2.70;99.90
18823;DHT22;9540;51.550;7.980;2023-03-01T08:12:14;3.60;99.90
18823;DHT22;9540;51.550;7.980;2023-03-01T08:14:42;4.20;99.90
18823;DHT22;9540;51.550;7.980;2023-03-01T08:17:09;4.40;99.90
18823;DHT22;9540;51.550;7.980;2023-03-01T08:19:38;4.60;99.90
18823;DHT22;9540;51.550;7.980;2023-03-01T08:22:05;4.70;99.90
18823;DHT22;9540;51.550;7.980;2023-03-01T08:24:32;5.30;99.90
18823;DHT22;9540;51.550;7.980;2023-03-01T08:26:59;5.60;99.90
18823;DHT22;9540;51.550;7.980;2023-03-01T08:29:28;5.70;99.90
18823;DHT22;9540;51.550;7.980;2023-03-01T08:32:00;6.10;99.90
18823;DHT22;9540;51.550;7.980;2023-03-01T08:34:27;6.20;99.90
18823;DHT22;9540;51.550;7.980;2023-03-01T08:36:55;6.30;99.90
18823;DHT22;9540;51.550;7.980;2023-03-01T08:39:23;6.30;99.90
18823;DHT22;9540;51.550;7.980;2023-03-01T08:41:50;6.50;99.90
18823;DHT22;9540;51.550;7.980;2023-03-01T08:44:17;6.40;99.90
18823;DHT22;9540;51.550;7.980;2023-03-01T08:46:45;6.60;99.90
18823;DHT22;9540;51.550;7.980;2023-03-01T08:49:14;7.20;99.90
18823;DHT22;9540;51.550;7.980;2023-03-01T08:51:42;7.60;99.90
18823;DHT22;9540;51.550;7.980;2023-03-01T08:54:13;7.90;99.90
18823;DHT22;9540;51.550;7.980;2023-03-01T08:56:41;7.90;99.90
18823;DHT22;9540;51.550;7.980;2023-03-01T08:59:09;8.00;99.90
18823;DHT22;9540;51.550;7.980;2023-03-01T09:01:37;7.80;99.90
18823;DHT22;9540;51.550;7.980;2023-03-01T09:04:04;8.40;99.90
18823;DHT22;9540;51.550;7.980;2023-03-01T09:06:31;9.20;93.80
18823;DHT22;9540;51.550;7.980;2023-03-01T09:09:00;9.20;91.50
18823;DHT22;9540;51.550;7.980;2023-03-01T09:11:30;8.60;96.90
18823;DHT22;9540;51.550;7.980;2023-03-01T09:13:57;8.00;99.90
18823;DHT22;9540;51.550;7.980;2023-03-01T09:16:24;7.30;99.90
18823;DHT22;9540;51.550;7.980;2023-03-01T09:18:54;7.10;99.90
18823;DHT22;9540;51.550;7.980;2023-03-01T09:21:23;6.90;99.90
18823;DHT22;9540;51.550;7.980;2023-03-01T09:23:52;7.30;99.90
18823;DHT22;9540;51.550;7.980;2023-03-01T09:26:21;7.80;99.90
18823;DHT22;9540;51.550;7.980;2023-03-01T09:28:52;8.50;98.40
18823;DHT22;9540;51.550;7.980;2023-03-01T09:31:20;9.10;95.00
18823;DHT22;9540;51.550;7.980;2023-03-01T09:33:50;9.10;98.80
18823;DHT22;9540;51.550;7.980;2023-03-01T09:36:19;10.00;93.80
18823;DHT22;9540;51.550;7.980;2023-03-01T09:38:47;11.00;79.60
18823;DHT22;9540;51.550;7.980;2023-03-01T09:41:26;11.00;78.90
18823;DHT22;9540;51.550;7.980;2023-03-01T09:44:04;10.90;78.30
18823;DHT22;9540;51.550;7.980;2023-03-01T09:46:40;10.70;76.30
18823;DHT22;9540;51.550;7.980;2023-03-01T09:49:12;10.40;78.30
18823;DHT22;9540;51.550;7.980;2023-03-01T09:51:43;10.30;80.80
18823;DHT22;9540;51.550;7.980;2023-03-01T09:54:14;10.90;78.30
18823;DHT22;9540;51.550;7.980;2023-03-01T09:56:46;11.30;74.60
18823;DHT22;9540;51.550;7.980;2023-03-01T09:59:26;11.00;75.80
18823;DHT22;9540;51.550;7.980;2023-03-01T10:01:59;10.50;73.30
18823;DHT22;9540;51.550;7.980;2023-03-01T10:04:39;9.70;77.30
18823;DHT22;9540;51.550;7.980;2023-03-01T10:07:22;9.00;80.90
18823;DHT22;9540;51.550;7.980;2023-03-01T10:09:52;8.60;88.20
18823;DHT22;9540;51.550;7.980;2023-03-01T10:12:23;8.40;88.70
18823;DHT22;9540;51.550;7.980;2023-03-01T10:14:57;8.50;92.20
18823;DHT22;9540;51.550;7.980;2023-03-01T10:17:32;8.60;89.90
18823;DHT22;9540;51.550;7.980;2023-03-01T10:20:17;8.10;91.60
18823;DHT22;9540;51.550;7.980;2023-03-01T10:22:45;7.70;95.50
18823;DHT22;9540;51.550;7.980;2023-03-01T10:25:20;7.40;99.90
18823;DHT22;9540;51.550;7.980;2023-03-01T10:27:53;7.40;98.80
18823;DHT22;9540;51.550;7.980;2023-03-01T10:30:30;7.10;99.90
18823;DHT22;9540;51.550;7.980;2023-03-01T10:32:59;7.00;99.90
18823;DHT22;9540;51.550;7.980;2023-03-01T10:35:33;6.90;99.90
18823;DHT22;9540;51.550;7.980;2023-03-01T10:38:06;6.80;99.90
18823;DHT22;9540;51.550;7.980;2023-03-01T10:40:36;7.00;99.90
18823;DHT22;9540;51.550;7.980;2023-03-01T10:43:04;7.20;99.90
18823;DHT22;9540;51.550;7.980;2023-03-01T10:45:34;7.50;99.90
18823;DHT22;9540;51.550;7.980;2023-03-01T10:48:11;7.60;99.90
18823;DHT22;9540;51.550;7.980;2023-03-01T10:50:40;7.30;99.90
18823;DHT22;9540;51.550;7.980;2023-03-01T10:53:20;7.20;99.90
18823;DHT22;9540;51.550;7.980;2023-03-01T10:55:57;6.60;99.90
18823;DHT22;9540;51.550;7.980;2023-03-01T10:58:25;6.10;99.90
18823;DHT22;9540;51.550;7.980;2023-03-01T11:00:55;6.10;99.90
18823;DHT22;9540;51.550;7.980;2023-03-01T11:03:24;6.20;99.90
18823;DHT22;9540;51.550;7.980;2023-03-01T11:06:00;6.50;99.90
18823;DHT22;9540;51.550;7.980;2023-03-01T11:08:39;6.20;99.90
18823;DHT22;9540;51.550;7.980;2023-03-01T11:11:28;6.20;99.90
18823;DHT22;9540;51.550;7.980;2023-03-01T11:13:58;6.30;99.90
18823;DHT22;9540;51.550;7.980;2023-03-01T11:16:33;5.80;99.90
18823;DHT22;9540;51.550;7.980;2023-03-01T11:19:15;5.50;99.90
18823;DHT22;9540;51.550;7.980;2023-03-01T11:21:49;5.40;99.90
18823;DHT22;9540;51.550;7.980;2023-03-01T11:24:19;5.50;99.90
18823;DHT22;9540;51.550;7.980;2023-03-01T11:26:50;5.60;99.90
18823;DHT22;9540;51.550;7.980;2023-03-01T11:29:27;5.70;99.90
18823;DHT22;9540;51.550;7.980;2023-03-01T11:32:02;5.80;99.90
18823;DHT22;9540;51.550;7.980;2023-03-01T11:34:38;5.80;99.90
18823;DHT22;9540;51.550;7.980;2023-03-01T11:37:15;5.90;99.90
18823;DHT22;9540;51.550;7.980;2023-03-01T11:39:49;6.10;99.90
18823;DHT22;9540;51.550;7.980;2023-03-01T11:42:20;6.40;99.90
18823;DHT22;9540;51.550;7.980;2023-03-01T11:44:52;6.30;99.90
18823;DHT22;9540;51.550;7.980;2023-03-01T11:47:47;6.40;99.90
18823;DHT22;9540;51.550;7.980;2023-03-01T11:50:21;6.70;99.90
18823;DHT22;9540;51.550;7.980;2023-03-01T11:53:05;7.00;99.90
18823;DHT22;9540;51.550;7.980;2023-03-01T11:55:51;7.50;99.90
18823;DHT22;9540;51.550;7.980;2023-03-01T11:58:43;7.50;99.90
18823;DHT22;9540;51.550;7.980;2023-03-01T12:01:36;7.60;99.90
18823;DHT22;9540;51.550;7.980;2023-03-01T12:07:12;7.50;95.50
18823;DHT22;9540;51.550;7.980;2023-03-01T12:10:07;7.40;99.90
18823;DHT22;9540;51.550;7.980;2023-03-01T12:16:03;7.30;98.70
18823;DHT22;9540;51.550;7.980;2023-03-01T12:19:01;7.20;99.30
18823;DHT22;9540;51.550;7.980;2023-03-01T12:21:46;7.30;96.00
18823;DHT22;9540;51.550;7.980;2023-03-01T12:24:47;7.60;94.50
18823;DHT22;9540;51.550;7.980;2023-03-01T12:27:32;8.10;96.00
18823;DHT22;9540;51.550;7.980;2023-03-01T12:30:13;8.20;91.30
18823;DHT22;9540;51.550;7.980;2023-03-01T12:32:48;8.20;90.50
18823;DHT22;9540;51.550;7.980;2023-03-01T12:35:36;8.40;90.60
18823;DHT22;9540;51.550;7.980;2023-03-01T12:38:17;8.30;85.00
18823;DHT22;9540;51.550;7.980;2023-03-01T12:43:58;9.20;79.50
18823;DHT22;9540;51.550;7.980;2023-03-01T12:46:38;9.50;82.10
18823;DHT22;9540;51.550;7.980;2023-03-01T12:51:40;10.00;77.10
18823;DHT22;9540;51.550;7.980;2023-03-01T12:54:15;10.10;74.70
18823;DHT22;9540;51.550;7.980;2023-03-01T12:56:43;9.80;77.10
18823;DHT22;9540;51.550;7.980;2023-03-01T12:59:19;9.30;78.20
18823;DHT22;9540;51.550;7.980;2023-03-01T13:01:55;8.80;77.40
18823;DHT22;9540;51.550;7.980;2023-03-01T13:04:41;8.60;79.60
18823;DHT22;9540;51.550;7.980;2023-03-01T13:07:19;8.40;80.70
18823;DHT22;9540;51.550;7.980;2023-03-01T13:09:59;7.90;85.10
18823;DHT22;9540;51.550;7.980;2023-03-01T13:12:51;7.50;89.50
18823;DHT22;9540;51.550;7.980;2023-03-01T13:15:35;7.10;93.80
18823;DHT22;9540;51.550;7.980;2023-03-01T13:18:04;7.10;95.50
18823;DHT22;9540;51.550;7.980;2023-03-01T13:20:52;7.40;96.00
18823;DHT22;9540;51.550;7.980;2023-03-01T13:23:28;7.50;87.10
18823;DHT22;9540;51.550;7.980;2023-03-01T13:26:07;7.50;90.10
18823;DHT22;9540;51.550;7.980;2023-03-01T13:28:40;7.30;88.40
18823;DHT22;9540;51.550;7.980;2023-03-01T13:31:11;7.10;97.50
18823;DHT22;9540;51.550;7.980;2023-03-01T13:33:57;6.90;94.80
18823;DHT22;9540;51.550;7.980;2023-03-01T13:36:47;6.70;95.00
18823;DHT22;9540;51.550;7.980;2023-03-01T13:39:28;6.60;95.70
18823;DHT22;9540;51.550;7.980;2023-03-01T13:41:58;6.60;91.90
18823;DHT22;9540;51.550;7.980;2023-03-01T13:44:30;6.40;94.30
18823;DHT22;9540;51.550;7.980;2023-03-01T13:46:59;6.30;95.40
18823;DHT22;9540;51.550;7.980;2023-03-01T13:49:40;6.20;96.00
18823;DHT22;9540;51.550;7.980;2023-03-01T13:52:32;6.20;99.90
18823;DHT22;9540;51.550;7.980;2023-03-01T13:55:03;6.10;99.90
18823;DHT22;9540;51.550;7.980;2023-03-01T13:57:34;6.10;99.90
18823;DHT22;9540;51.550;7.980;2023-03-01T14:00:03;6.20;99.90
18823;DHT22;9540;51.550;7.980;2023-03-01T14:02:30;6.30;99.90
18823;DHT22;9540;51.550;7.980;2023-03-01T14:04:59;6.30;99.50
18823;DHT22;9540;51.550;7.980;2023-03-01T14:07:27;6.30;99.10
18823;DHT22;9540;51.550;7.980;2023-03-01T14:09:58;6.40;99.90
18823;DHT22;9540;51.550;7.980;2023-03-01T14:12:37;6.60;99.90
18823;DHT22;9540;51.550;7.980;2023-03-01T14:15:08;6.70;96.70
18823;DHT22;9540;51.550;7.980;2023-03-01T14:17:55;6.70;98.30
18823;DHT22;9540;51.550;7.980;2023-03-01T14:20:28;6.70;99.40
18823;DHT22;9540;51.550;7.980;2023-03-01T14:22:59;6.70;99.00
18823;DHT22;9540;51.550;7.980;2023-03-01T14:25:28;7.10;93.80
18823;DHT22;9540;51.550;7.980;2023-03-01T14:28:03;7.60;91.90
18823;DHT22;9540;51.550;7.980;2023-03-01T14:30:34;7.90;92.70
18823;DHT22;9540;51.550;7.980;2023-03-01T14:33:05;8.10;87.50
18823;DHT22;9540;51.550;7.980;2023-03-01T14:35:35;8.30;86.40
18823;DHT22;9540;51.550;7.980;2023-03-01T14:38:03;8.30;84.40
18823;DHT22;9540;51.550;7.980;2023-03-01T14:40:32;8.10;85.50
18823;DHT22;9540;51.550;7.980;2023-03-01T14:43:00;8.10;84.00
18823;DHT22;9540;51.550;7.980;2023-03-01T14:45:29;8.10;82.90
18823;DHT22;9540;51.550;7.980;2023-03-01T14:48:00;7.90;83.30
18823;DHT22;9540;51.550;7.980;2023-03-01T14:50:29;7.70;84.20
18823;DHT22;9540;51.550;7.980;2023-03-01T14:53:00;7.60;84.00
18823;DHT22;9540;51.550;7.980;2023-03-01T14:55:31;7.40;87.50
18823;DHT22;9540;51.550;7.980;2023-03-01T14:57:58;7.20;91.00
18823;DHT22;9540;51.550;7.980;2023-03-01T15:00:27;7.10;89.00
18823;DHT22;9540;51.550;7.980;2023-03-01T15:02:58;6.90;90.50
18823;DHT22;9540;51.550;7.980;2023-03-01T15:05:30;6.80;88.40
18823;DHT22;9540;51.550;7.980;2023-03-01T15:08:01;6.80;92.20
18823;DHT22;9540;51.550;7.980;2023-03-01T15:10:31;6.80;92.50
18823;DHT22;9540;51.550;7.980;2023-03-01T15:13:10;6.80;88.30
18823;DHT22;9540;51.550;7.980;2023-03-01T15:15:40;6.70;92.00
18823;DHT22;9540;51.550;7.980;2023-03-01T15:18:17;6.60;95.60
18823;DHT22;9540;51.550;7.980;2023-03-01T15:20:45;6.50;93.60
18823;DHT22;9540;51.550;7.980;2023-03-01T15:23:21;6.40;95.30
18823;DHT22;9540;51.550;7.980;2023-03-01T15:25:49;6.40;96.20
18823;DHT22;9540;51.550;7.980;2023-03-01T15:28:23;6.30;99.90
18823;DHT22;9540;51.550;7.980;2023-03-01T15:30:56;6.30;96.20
18823;DHT22;9540;51.550;7.980;2023-03-01T15:33:31;6.30;93.60
18823;DHT22;9540;51.550;7.980;2023-03-01T15:35:59;6.20;94.90
18823;DHT22;9540;51.550;7.980;2023-03-01T15:38:34;6.10;98.40
18823;DHT22;9540;51.550;7.980;2023-03-01T15:41:19;6.00;99.90
18823;DHT22;9540;51.550;7.980;2023-03-01T15:43:48;5.90;99.90
18823;DHT22;9540;51.550;7.980;2023-03-01T15:46:18;5.90;99.90
18823;DHT22;9540;51.550;7.980;2023-03-01T15:48:48;5.90;99.90
18823;DHT22;9540;51.550;7.980;2023-03-01T15:51:16;5.80;99.90
18823;DHT22;9540;51.550;7.980;2023-03-01T15:53:51;5.70;99.90
18823;DHT22;9540;51.550;7.980;2023-03-01T15:56:19;5.60;99.90
18823;DHT22;9540;51.550;7.980;2023-03-01T15:58:45;5.50;99.90
18823;DHT22;9540;51.550;7.980;2023-03-01T16:01:13;5.50;99.90
18823;DHT22;9540;51.550;7.980;2023-03-01T16:03:41;5.40;99.90
18823;DHT22;9540;51.550;7.980;2023-03-01T16:06:09;5.30;99.90
18823;DHT22;9540;51.550;7.980;2023-03-01T16:08:36;5.20;99.90
18823;DHT22;9540;51.550;7.980;2023-03-01T16:11:05;5.20;99.90
18823;DHT22;9540;51.550;7.980;2023-03-01T16:13:36;5.20;99.90
18823;DHT22;9540;51.550;7.980;2023-03-01T16:16:04;5.10;99.90
18823;DHT22;9540;51.550;7.980;2023-03-01T16:18:31;5.00;99.90
18823;DHT22;9540;51.550;7.980;2023-03-01T16:20:58;4.90;99.90
18823;DHT22;9540;51.550;7.980;2023-03-01T16:23:26;4.80;99.90
18823;DHT22;9540;51.550;7.980;2023-03-01T16:25:53;4.70;99.90
18823;DHT22;9540;51.550;7.980;2023-03-01T16:28:21;4.70;99.90